sensor_id;sensor_type;location;lat;lon;timestamp;P1;durP1;ratioP1;P2;durP2;ratioP2
27213;SDS011;14723;55.814;37.460;2022-07-05T00:02:34;20.02;;;13.02;;
27213;SDS011;14723;55.814;37.460;2022-07-05T00:05:39;22.13;;;13.68;;
27213;SDS011;14723;55.814;37.460;2022-07-05T00:08:44;18.42;;;13.32;;
27213;SDS011;14723;55.814;37.460;2022-07-05T00:11:50;18.67;;;13.70;;
27213;SDS011;14723;55.814;37.460;2022-07-05T00:14:55;20.70;;;13.88;;
27213;SDS011;14723;55.814;37.460;2022-07-05T00:18:03;16.52;;;13.13;;
27213;SDS011;14723;55.814;37.460;2022-07-05T00:21:08;20.65;;;13.77;;
27213;SDS011;14723;55.814;37.460;2022-07-05T00:24:14;20.30;;;13.20;;
27213;SDS011;14723;55.814;37.460;2022-07-05T00:27:19;21.45;;;14.07;;
27213;SDS011;14723;55.814;37.460;2022-07-05T00:30:24;20.45;;;13.60;;
27213;SDS011;14723;55.814;37.460;2022-07-05T00:33:32;20.45;;;14.57;;
27213;SDS011;14723;55.814;37.460;2022-07-05T00:36:38;21.25;;;13.23;;
27213;SDS011;14723;55.814;37.460;2022-07-05T00:39:43;22.70;;;14.50;;
27213;SDS011;14723;55.814;37.460;2022-07-05T00:42:48;19.70;;;13.52;;
27213;SDS011;14723;55.814;37.460;2022-07-05T00:45:54;23.25;;;14.05;;
27213;SDS011;14723;55.814;37.460;2022-07-05T00:49:02;21.10;;;13.48;;
27213;SDS011;14723;55.814;37.460;2022-07-05T00:52:08;24.02;;;13.70;;
27213;SDS011;14723;55.814;37.460;2022-07-05T00:55:20;23.98;;;14.40;;
27213;SDS011;14723;55.814;37.460;2022-07-05T00:58:26;21.55;;;12.82;;
27213;SDS011;14723;55.814;37.460;2022-07-05T01:01:32;20.10;;;13.48;;
27213;SDS011;14723;55.814;37.460;2022-07-05T01:04:40;20.98;;;13.93;;
27213;SDS011;14723;55.814;37.460;2022-07-05T01:07:46;20.38;;;13.38;;
27213;SDS011;14723;55.814;37.460;2022-07-05T01:10:51;21.40;;;13.13;;
27213;SDS011;14723;55.814;37.460;2022-07-05T01:13:58;25.45;;;14.98;;
27213;SDS011;14723;55.814;37.460;2022-07-05T01:17:04;18.08;;;13.90;;
27213;SDS011;14723;55.814;37.460;2022-07-05T01:20:12;23.17;;;14.05;;
27213;SDS011;14723;55.814;37.460;2022-07-05T01:26:25;23.98;;;13.63;;
27213;SDS011;14723;55.814;37.460;2022-07-05T01:29:30;26.85;;;15.55;;
27213;SDS011;14723;55.814;37.460;2022-07-05T01:32:35;21.05;;;13.05;;
27213;SDS011;14723;55.814;37.460;2022-07-05T01:35:41;23.50;;;14.30;;
27213;SDS011;14723;55.814;37.460;2022-07-05T01:38:47;22.77;;;15.18;;
27213;SDS011;14723;55.814;37.460;2022-07-05T01:41:55;25.70;;;14.60;;
27213;SDS011;14723;55.814;37.460;2022-07-05T01:45:00;23.40;;;14.68;;
27213;SDS011;14723;55.814;37.460;2022-07-05T01:48:06;21.00;;;14.15;;
27213;SDS011;14723;55.814;37.460;2022-07-05T01:51:16;25.48;;;15.25;;
27213;SDS011;14723;55.814;37.460;2022-07-05T01:54:24;18.83;;;14.40;;
27213;SDS011;14723;55.814;37.460;2022-07-05T01:57:32;21.45;;;13.75;;
27213;SDS011;14723;55.814;37.460;2022-07-05T02:00:44;22.33;;;14.00;;
27213;SDS011;14723;55.814;37.460;2022-07-05T02:03:49;24.55;;;15.00;;
27213;SDS011;14723;55.814;37.460;2022-07-05T02:06:59;22.67;;;15.32;;
27213;SDS011;14723;55.814;37.460;2022-07-05T02:10:04;25.05;;;14.15;;
27213;SDS011;14723;55.814;37.460;2022-07-05T02:13:13;21.80;;;14.30;;
27213;SDS011;14723;55.814;37.460;2022-07-05T02:16:21;25.80;;;14.43;;
27213;SDS011;14723;55.814;37.460;2022-07-05T02:19:27;24.30;;;14.30;;
27213;SDS011;14723;55.814;37.460;2022-07-05T02:22:32;21.23;;;14.30;;
27213;SDS011;14723;55.814;37.460;2022-07-05T02:25:37;21.37;;;14.10;;
27213;SDS011;14723;55.814;37.460;2022-07-05T02:28:51;21.52;;;14.77;;
27213;SDS011;14723;55.814;37.460;2022-07-05T02:31:56;24.15;;;13.65;;
27213;SDS011;14723;55.814;37.460;2022-07-05T02:35:03;23.83;;;13.35;;
27213;SDS011;14723;55.814;37.460;2022-07-05T02:38:09;25.17;;;13.93;;
27213;SDS011;14723;55.814;37.460;2022-07-05T02:41:14;24.00;;;13.82;;
27213;SDS011;14723;55.814;37.460;2022-07-05T02:44:25;23.23;;;14.35;;
27213;SDS011;14723;55.814;37.460;2022-07-05T02:47:30;26.58;;;14.25;;
27213;SDS011;14723;55.814;37.460;2022-07-05T02:50:36;20.20;;;13.70;;
27213;SDS011;14723;55.814;37.460;2022-07-05T02:53:42;26.05;;;14.38;;
27213;SDS011;14723;55.814;37.460;2022-07-05T02:56:49;19.80;;;13.60;;
27213;SDS011;14723;55.814;37.460;2022-07-05T02:59:57;23.70;;;14.10;;
27213;SDS011;14723;55.814;37.460;2022-07-05T03:03:12;22.67;;;14.05;;
27213;SDS011;14723;55.814;37.460;2022-07-05T03:06:17;24.20;;;14.35;;
27213;SDS011;14723;55.814;37.460;2022-07-05T03:09:23;22.02;;;14.15;;
27213;SDS011;14723;55.814;37.460;2022-07-05T03:12:30;22.90;;;13.87;;
27213;SDS011;14723;55.814;37.460;2022-07-05T03:15:39;20.50;;;13.45;;
27213;SDS011;14723;55.814;37.460;2022-07-05T03:18:48;28.10;;;15.07;;
27213;SDS011;14723;55.814;37.460;2022-07-05T03:21:53;21.90;;;14.48;;
27213;SDS011;14723;55.814;37.460;2022-07-05T03:24:59;22.50;;;14.55;;
27213;SDS011;14723;55.814;37.460;2022-07-05T03:28:06;21.23;;;14.25;;
27213;SDS011;14723;55.814;37.460;2022-07-05T03:31:16;27.58;;;15.32;;
27213;SDS011;14723;55.814;37.460;2022-07-05T03:34:22;24.15;;;14.95;;
27213;SDS011;14723;55.814;37.460;2022-07-05T03:37:28;20.73;;;13.57;;
27213;SDS011;14723;55.814;37.460;2022-07-05T03:40:33;19.70;;;14.27;;
27213;SDS011;14723;55.814;37.460;2022-07-05T03:43:39;22.90;;;15.35;;
27213;SDS011;14723;55.814;37.460;2022-07-05T03:46:48;19.92;;;14.27;;
27213;SDS011;14723;55.814;37.460;2022-07-05T03:49:53;19.15;;;12.23;;
27213;SDS011;14723;55.814;37.460;2022-07-05T03:52:59;18.48;;;11.95;;
27213;SDS011;14723;55.814;37.460;2022-07-05T03:56:05;18.27;;;12.05;;
27213;SDS011;14723;55.814;37.460;2022-07-05T03:59:11;15.25;;;11.95;;
27213;SDS011;14723;55.814;37.460;2022-07-05T04:02:19;16.70;;;12.45;;
27213;SDS011;14723;55.814;37.460;2022-07-05T04:08:29;14.15;;;11.15;;
27213;SDS011;14723;55.814;37.460;2022-07-05T04:11:35;14.48;;;10.18;;
27213;SDS011;14723;55.814;37.460;2022-07-05T04:14:40;13.18;;;9.93;;
27213;SDS011;14723;55.814;37.460;2022-07-05T04:17:49;11.57;;;10.30;;
27213;SDS011;14723;55.814;37.460;2022-07-05T04:20:55;13.80;;;9.63;;
27213;SDS011;14723;55.814;37.460;2022-07-05T04:24:00;14.57;;;9.52;;
27213;SDS011;14723;55.814;37.460;2022-07-05T04:27:05;12.90;;;9.40;;
27213;SDS011;14723;55.814;37.460;2022-07-05T04:30:11;13.98;;;9.40;;
27213;SDS011;14723;55.814;37.460;2022-07-05T04:33:19;13.40;;;9.20;;
27213;SDS011;14723;55.814;37.460;2022-07-05T04:36:28;14.93;;;9.10;;
27213;SDS011;14723;55.814;37.460;2022-07-05T04:39:34;13.40;;;9.63;;
27213;SDS011;14723;55.814;37.460;2022-07-05T04:42:43;13.38;;;9.32;;
27213;SDS011;14723;55.814;37.460;2022-07-05T04:45:50;18.38;;;9.55;;
27213;SDS011;14723;55.814;37.460;2022-07-05T04:49:02;14.52;;;9.10;;
27213;SDS011;14723;55.814;37.460;2022-07-05T04:55:13;11.60;;;8.95;;
27213;SDS011;14723;55.814;37.460;2022-07-05T04:58:18;11.60;;;8.77;;
27213;SDS011;14723;55.814;37.460;2022-07-05T05:01:23;14.45;;;9.02;;
27213;SDS011;14723;55.814;37.460;2022-07-05T05:04:31;10.23;;;8.25;;
27213;SDS011;14723;55.814;37.460;2022-07-05T05:07:36;11.98;;;8.93;;
27213;SDS011;14723;55.814;37.460;2022-07-05T05:10:42;13.50;;;9.30;;
27213;SDS011;14723;55.814;37.460;2022-07-05T05:13:47;17.15;;;9.52;;
27213;SDS011;14723;55.814;37.460;2022-07-05T05:16:52;15.80;;;8.63;;
27213;SDS011;14723;55.814;37.460;2022-07-05T05:20:00;12.35;;;8.43;;
27213;SDS011;14723;55.814;37.460;2022-07-05T05:23:05;12.18;;;8.55;;
27213;SDS011;14723;55.814;37.460;2022-07-05T05:26:11;9.60;;;8.60;;
27213;SDS011;14723;55.814;37.460;2022-07-05T05:29:16;12.48;;;8.55;;
27213;SDS011;14723;55.814;37.460;2022-07-05T05:32:22;10.77;;;8.10;;
27213;SDS011;14723;55.814;37.460;2022-07-05T05:35:30;10.27;;;8.63;;
27213;SDS011;14723;55.814;37.460;2022-07-05T05:38:35;13.23;;;9.20;;
27213;SDS011;14723;55.814;37.460;2022-07-05T05:41:40;14.82;;;9.23;;
27213;SDS011;14723;55.814;37.460;2022-07-05T05:44:46;13.02;;;11.23;;
27213;SDS011;14723;55.814;37.460;2022-07-05T05:47:52;10.77;;;9.45;;
27213;SDS011;14723;55.814;37.460;2022-07-05T05:51:00;13.07;;;9.77;;
27213;SDS011;14723;55.814;37.460;2022-07-05T05:54:05;11.55;;;8.98;;
27213;SDS011;14723;55.814;37.460;2022-07-05T05:57:10;12.32;;;8.85;;
27213;SDS011;14723;55.814;37.460;2022-07-05T06:00:16;13.82;;;8.77;;
27213;SDS011;14723;55.814;37.460;2022-07-05T06:03:22;12.13;;;8.68;;
27213;SDS011;14723;55.814;37.460;2022-07-05T06:06:29;12.38;;;9.18;;
27213;SDS011;14723;55.814;37.460;2022-07-05T06:09:35;11.07;;;8.38;;
27213;SDS011;14723;55.814;37.460;2022-07-05T06:12:40;12.15;;;9.43;;
27213;SDS011;14723;55.814;37.460;2022-07-05T06:15:46;11.90;;;8.40;;
27213;SDS011;14723;55.814;37.460;2022-07-05T06:18:51;16.60;;;9.75;;
27213;SDS011;14723;55.814;37.460;2022-07-05T06:21:59;17.85;;;13.02;;
27213;SDS011;14723;55.814;37.460;2022-07-05T06:28:25;9.85;;;8.65;;
27213;SDS011;14723;55.814;37.460;2022-07-05T06:31:31;12.25;;;7.90;;
27213;SDS011;14723;55.814;37.460;2022-07-05T06:34:36;12.23;;;8.27;;
27213;SDS011;14723;55.814;37.460;2022-07-05T06:37:44;13.55;;;8.68;;
27213;SDS011;14723;55.814;37.460;2022-07-05T06:40:50;14.48;;;9.48;;
27213;SDS011;14723;55.814;37.460;2022-07-05T06:43:56;11.20;;;9.88;;
27213;SDS011;14723;55.814;37.460;2022-07-05T06:47:21;11.70;;;9.70;;
27213;SDS011;14723;55.814;37.460;2022-07-05T06:50:27;17.98;;;12.07;;
27213;SDS011;14723;55.814;37.460;2022-07-05T06:53:35;15.05;;;9.10;;
27213;SDS011;14723;55.814;37.460;2022-07-05T07:00:06;15.57;;;10.07;;
27213;SDS011;14723;55.814;37.460;2022-07-05T07:03:29;14.85;;;9.98;;
27213;SDS011;14723;55.814;37.460;2022-07-05T07:06:55;15.18;;;9.50;;
27213;SDS011;14723;55.814;37.460;2022-07-05T07:10:03;14.23;;;10.50;;
27213;SDS011;14723;55.814;37.460;2022-07-05T07:13:06;14.30;;;11.50;;
27213;SDS011;14723;55.814;37.460;2022-07-05T07:16:11;13.43;;;10.63;;
27213;SDS011;14723;55.814;37.460;2022-07-05T07:19:16;13.88;;;9.93;;
27213;SDS011;14723;55.814;37.460;2022-07-05T07:22:22;19.27;;;10.60;;
27213;SDS011;14723;55.814;37.460;2022-07-05T07:25:30;16.52;;;10.82;;
27213;SDS011;14723;55.814;37.460;2022-07-05T07:28:36;15.25;;;9.30;;
27213;SDS011;14723;55.814;37.460;2022-07-05T07:31:41;18.75;;;10.98;;
27213;SDS011;14723;55.814;37.460;2022-07-05T07:34:46;12.07;;;9.82;;
27213;SDS011;14723;55.814;37.460;2022-07-05T07:37:51;13.55;;;9.82;;
27213;SDS011;14723;55.814;37.460;2022-07-05T07:40:59;14.30;;;10.13;;
27213;SDS011;14723;55.814;37.460;2022-07-05T07:47:09;10.88;;;9.45;;
27213;SDS011;14723;55.814;37.460;2022-07-05T07:50:15;11.95;;;9.57;;
27213;SDS011;14723;55.814;37.460;2022-07-05T07:53:20;14.80;;;9.27;;
27213;SDS011;14723;55.814;37.460;2022-07-05T07:56:28;11.27;;;9.68;;
27213;SDS011;14723;55.814;37.460;2022-07-05T07:59:34;13.85;;;9.82;;
27213;SDS011;14723;55.814;37.460;2022-07-05T08:02:39;13.90;;;9.45;;
27213;SDS011;14723;55.814;37.460;2022-07-05T08:05:44;15.90;;;10.60;;
27213;SDS011;14723;55.814;37.460;2022-07-05T08:08:50;10.88;;;9.88;;
27213;SDS011;14723;55.814;37.460;2022-07-05T08:11:57;13.43;;;10.13;;
27213;SDS011;14723;55.814;37.460;2022-07-05T08:18:10;12.60;;;10.65;;
27213;SDS011;14723;55.814;37.460;2022-07-05T08:21:27;10.25;;;9.23;;
27213;SDS011;14723;55.814;37.460;2022-07-05T08:24:40;12.02;;;9.52;;
27213;SDS011;14723;55.814;37.460;2022-07-05T08:27:49;11.25;;;9.75;;
27213;SDS011;14723;55.814;37.460;2022-07-05T08:33:59;12.88;;;10.65;;
27213;SDS011;14723;55.814;37.460;2022-07-05T08:37:04;11.10;;;10.10;;
27213;SDS011;14723;55.814;37.460;2022-07-05T08:40:16;13.45;;;10.88;;
27213;SDS011;14723;55.814;37.460;2022-07-05T08:43:26;11.77;;;10.73;;
27213;SDS011;14723;55.814;37.460;2022-07-05T08:46:33;10.98;;;9.85;;
27213;SDS011;14723;55.814;37.460;2022-07-05T08:49:38;11.32;;;10.18;;
27213;SDS011;14723;55.814;37.460;2022-07-05T08:52:45;12.07;;;10.20;;
27213;SDS011;14723;55.814;37.460;2022-07-05T08:55:51;11.52;;;10.52;;
27213;SDS011;14723;55.814;37.460;2022-07-05T08:58:59;13.23;;;11.45;;
27213;SDS011;14723;55.814;37.460;2022-07-05T09:02:05;11.60;;;10.50;;
27213;SDS011;14723;55.814;37.460;2022-07-05T09:05:12;12.23;;;10.77;;
27213;SDS011;14723;55.814;37.460;2022-07-05T09:08:17;12.07;;;10.98;;
27213;SDS011;14723;55.814;37.460;2022-07-05T09:11:24;13.95;;;10.75;;
27213;SDS011;14723;55.814;37.460;2022-07-05T09:14:31;12.77;;;11.07;;
27213;SDS011;14723;55.814;37.460;2022-07-05T09:20:46;11.95;;;10.85;;
27213;SDS011;14723;55.814;37.460;2022-07-05T09:23:53;12.27;;;11.07;;
27213;SDS011;14723;55.814;37.460;2022-07-05T09:27:02;12.52;;;11.32;;
27213;SDS011;14723;55.814;37.460;2022-07-05T09:30:11;11.95;;;10.77;;
27213;SDS011;14723;55.814;37.460;2022-07-05T09:33:17;13.40;;;12.13;;
27213;SDS011;14723;55.814;37.460;2022-07-05T09:36:22;13.50;;;10.75;;
27213;SDS011;14723;55.814;37.460;2022-07-05T09:39:35;13.65;;;10.93;;
27213;SDS011;14723;55.814;37.460;2022-07-05T09:42:40;11.82;;;10.48;;
27213;SDS011;14723;55.814;37.460;2022-07-05T09:45:56;14.35;;;11.80;;
27213;SDS011;14723;55.814;37.460;2022-07-05T09:49:01;13.30;;;11.38;;
27213;SDS011;14723;55.814;37.460;2022-07-05T09:52:06;17.45;;;11.88;;
27213;SDS011;14723;55.814;37.460;2022-07-05T09:55:12;14.35;;;12.55;;
27213;SDS011;14723;55.814;37.460;2022-07-05T09:58:25;15.80;;;13.00;;
27213;SDS011;14723;55.814;37.460;2022-07-05T10:01:32;18.92;;;13.63;;
27213;SDS011;14723;55.814;37.460;2022-07-05T10:04:38;16.02;;;13.10;;
27213;SDS011;14723;55.814;37.460;2022-07-05T10:07:44;15.95;;;12.82;;
27213;SDS011;14723;55.814;37.460;2022-07-05T10:10:50;14.73;;;12.52;;
27213;SDS011;14723;55.814;37.460;2022-07-05T10:13:56;14.40;;;12.48;;
27213;SDS011;14723;55.814;37.460;2022-07-05T10:17:05;13.27;;;11.93;;
27213;SDS011;14723;55.814;37.460;2022-07-05T10:20:16;15.52;;;12.13;;
27213;SDS011;14723;55.814;37.460;2022-07-05T10:23:22;13.02;;;11.45;;
27213;SDS011;14723;55.814;37.460;2022-07-05T10:26:28;14.43;;;11.82;;
27213;SDS011;14723;55.814;37.460;2022-07-05T10:29:36;18.75;;;11.85;;
27213;SDS011;14723;55.814;37.460;2022-07-05T10:32:44;17.17;;;11.70;;
27213;SDS011;14723;55.814;37.460;2022-07-05T10:35:50;14.60;;;11.73;;
27213;SDS011;14723;55.814;37.460;2022-07-05T10:38:55;14.75;;;10.82;;
27213;SDS011;14723;55.814;37.460;2022-07-05T10:42:01;13.02;;;11.07;;
27213;SDS011;14723;55.814;37.460;2022-07-05T10:48:29;16.42;;;11.85;;
27213;SDS011;14723;55.814;37.460;2022-07-05T10:51:35;22.85;;;17.25;;
27213;SDS011;14723;55.814;37.460;2022-07-05T11:04:49;13.35;;;11.95;;
27213;SDS011;14723;55.814;37.460;2022-07-05T11:07:59;23.45;;;13.40;;
27213;SDS011;14723;55.814;37.460;2022-07-05T11:11:08;13.20;;;11.20;;
27213;SDS011;14723;55.814;37.460;2022-07-05T11:14:29;23.63;;;10.95;;
27213;SDS011;14723;55.814;37.460;2022-07-05T11:17:36;15.45;;;10.60;;
27213;SDS011;14723;55.814;37.460;2022-07-05T11:24:26;22.27;;;11.30;;
27213;SDS011;14723;55.814;37.460;2022-07-05T11:27:33;18.00;;;11.27;;
27213;SDS011;14723;55.814;37.460;2022-07-05T11:30:45;17.27;;;12.52;;
27213;SDS011;14723;55.814;37.460;2022-07-05T11:33:50;19.75;;;13.52;;
27213;SDS011;14723;55.814;37.460;2022-07-05T11:40:39;12.43;;;11.25;;
27213;SDS011;14723;55.814;37.460;2022-07-05T11:43:44;13.52;;;10.88;;
27213;SDS011;14723;55.814;37.460;2022-07-05T11:46:59;13.85;;;10.23;;
27213;SDS011;14723;55.814;37.460;2022-07-05T11:50:08;12.00;;;10.57;;
27213;SDS011;14723;55.814;37.460;2022-07-05T11:53:14;13.82;;;9.05;;
27213;SDS011;14723;55.814;37.460;2022-07-05T11:56:52;18.15;;;9.60;;
27213;SDS011;14723;55.814;37.460;2022-07-05T11:59:58;13.73;;;9.05;;
27213;SDS011;14723;55.814;37.460;2022-07-05T12:03:13;11.48;;;9.70;;
27213;SDS011;14723;55.814;37.460;2022-07-05T12:06:19;17.33;;;10.93;;
27213;SDS011;14723;55.814;37.460;2022-07-05T12:09:26;12.00;;;10.48;;
27213;SDS011;14723;55.814;37.460;2022-07-05T12:12:54;11.43;;;10.25;;
27213;SDS011;14723;55.814;37.460;2022-07-05T12:15:58;15.00;;;10.38;;
27213;SDS011;14723;55.814;37.460;2022-07-05T12:19:04;18.10;;;11.45;;
27213;SDS011;14723;55.814;37.460;2022-07-05T12:22:09;16.13;;;10.95;;
27213;SDS011;14723;55.814;37.460;2022-07-05T12:25:15;22.10;;;13.35;;
27213;SDS011;14723;55.814;37.460;2022-07-05T12:28:23;16.13;;;11.85;;
27213;SDS011;14723;55.814;37.460;2022-07-05T12:34:36;22.05;;;15.45;;
27213;SDS011;14723;55.814;37.460;2022-07-05T12:37:43;44.78;;;24.02;;
27213;SDS011;14723;55.814;37.460;2022-07-05T12:40:48;25.55;;;17.13;;
27213;SDS011;14723;55.814;37.460;2022-07-05T12:43:57;27.10;;;18.73;;
27213;SDS011;14723;55.814;37.460;2022-07-05T12:47:03;19.70;;;15.73;;
27213;SDS011;14723;55.814;37.460;2022-07-05T12:50:09;27.38;;;19.55;;
27213;SDS011;14723;55.814;37.460;2022-07-05T12:53:15;29.45;;;20.05;;
27213;SDS011;14723;55.814;37.460;2022-07-05T12:56:32;28.08;;;18.45;;
27213;SDS011;14723;55.814;37.460;2022-07-05T13:00:13;18.95;;;15.23;;
27213;SDS011;14723;55.814;37.460;2022-07-05T13:03:20;25.23;;;17.50;;
27213;SDS011;14723;55.814;37.460;2022-07-05T13:06:39;23.90;;;17.90;;
27213;SDS011;14723;55.814;37.460;2022-07-05T13:12:49;29.73;;;17.08;;
27213;SDS011;14723;55.814;37.460;2022-07-05T13:15:57;26.60;;;15.30;;
27213;SDS011;14723;55.814;37.460;2022-07-05T13:19:09;33.80;;;20.08;;
27213;SDS011;14723;55.814;37.460;2022-07-05T13:22:15;29.27;;;15.07;;
27213;SDS011;14723;55.814;37.460;2022-07-05T13:25:20;28.00;;;15.90;;
27213;SDS011;14723;55.814;37.460;2022-07-05T13:28:25;26.80;;;13.75;;
27213;SDS011;14723;55.814;37.460;2022-07-05T13:31:33;21.92;;;13.65;;
27213;SDS011;14723;55.814;37.460;2022-07-05T13:34:38;18.23;;;11.02;;
27213;SDS011;14723;55.814;37.460;2022-07-05T13:37:44;16.70;;;9.82;;
27213;SDS011;14723;55.814;37.460;2022-07-05T13:40:49;15.95;;;11.00;;
27213;SDS011;14723;55.814;37.460;2022-07-05T13:43:54;12.77;;;10.27;;
27213;SDS011;14723;55.814;37.460;2022-07-05T13:47:02;12.68;;;9.95;;
27213;SDS011;14723;55.814;37.460;2022-07-05T13:50:09;15.18;;;9.98;;
27213;SDS011;14723;55.814;37.460;2022-07-05T13:53:27;10.88;;;9.35;;
27213;SDS011;14723;55.814;37.460;2022-07-05T13:56:32;13.70;;;9.98;;
27213;SDS011;14723;55.814;37.460;2022-07-05T13:59:38;14.05;;;9.98;;
27213;SDS011;14723;55.814;37.460;2022-07-05T14:02:45;15.10;;;11.27;;
27213;SDS011;14723;55.814;37.460;2022-07-05T14:05:51;16.25;;;10.80;;
27213;SDS011;14723;55.814;37.460;2022-07-05T14:08:56;15.27;;;11.05;;
27213;SDS011;14723;55.814;37.460;2022-07-05T14:12:02;16.50;;;10.18;;
27213;SDS011;14723;55.814;37.460;2022-07-05T14:15:08;12.02;;;10.05;;
27213;SDS011;14723;55.814;37.460;2022-07-05T14:18:16;15.90;;;11.00;;
27213;SDS011;14723;55.814;37.460;2022-07-05T14:21:22;16.58;;;9.93;;
27213;SDS011;14723;55.814;37.460;2022-07-05T14:24:38;13.13;;;10.50;;
27213;SDS011;14723;55.814;37.460;2022-07-05T14:27:43;15.65;;;11.20;;
27213;SDS011;14723;55.814;37.460;2022-07-05T14:30:48;17.70;;;11.57;;
27213;SDS011;14723;55.814;37.460;2022-07-05T14:33:56;18.33;;;12.63;;
27213;SDS011;14723;55.814;37.460;2022-07-05T14:37:02;18.23;;;11.18;;
27213;SDS011;14723;55.814;37.460;2022-07-05T14:40:08;15.10;;;11.88;;
27213;SDS011;14723;55.814;37.460;2022-07-05T14:43:14;19.55;;;12.13;;
27213;SDS011;14723;55.814;37.460;2022-07-05T14:46:20;19.50;;;11.50;;
27213;SDS011;14723;55.814;37.460;2022-07-05T14:49:28;23.60;;;12.27;;
27213;SDS011;14723;55.814;37.460;2022-07-05T14:52:33;17.98;;;11.82;;
27213;SDS011;14723;55.814;37.460;2022-07-05T14:55:38;25.70;;;13.98;;
27213;SDS011;14723;55.814;37.460;2022-07-05T14:58:45;22.60;;;13.23;;
27213;SDS011;14723;55.814;37.460;2022-07-05T15:01:51;18.55;;;13.13;;
27213;SDS011;14723;55.814;37.460;2022-07-05T15:04:59;21.48;;;14.40;;
27213;SDS011;14723;55.814;37.460;2022-07-05T15:08:04;21.63;;;13.07;;
27213;SDS011;14723;55.814;37.460;2022-07-05T15:11:09;21.85;;;13.32;;
27213;SDS011;14723;55.814;37.460;2022-07-05T15:14:15;16.90;;;12.23;;
27213;SDS011;14723;55.814;37.460;2022-07-05T15:17:20;20.02;;;12.98;;
27213;SDS011;14723;55.814;37.460;2022-07-05T15:20:28;20.55;;;14.43;;
27213;SDS011;14723;55.814;37.460;2022-07-05T15:23:34;18.25;;;14.48;;
27213;SDS011;14723;55.814;37.460;2022-07-05T15:26:39;19.05;;;13.95;;
27213;SDS011;14723;55.814;37.460;2022-07-05T15:29:45;20.63;;;14.55;;
27213;SDS011;14723;55.814;37.460;2022-07-05T15:32:50;22.23;;;15.82;;
27213;SDS011;14723;55.814;37.460;2022-07-05T15:36:04;23.92;;;15.32;;
27213;SDS011;14723;55.814;37.460;2022-07-05T15:39:09;19.77;;;13.13;;
27213;SDS011;14723;55.814;37.460;2022-07-05T15:42:14;17.73;;;12.85;;
27213;SDS011;14723;55.814;37.460;2022-07-05T15:45:21;16.75;;;12.35;;
27213;SDS011;14723;55.814;37.460;2022-07-05T15:48:27;19.38;;;12.32;;
27213;SDS011;14723;55.814;37.460;2022-07-05T15:51:34;16.48;;;13.63;;
27213;SDS011;14723;55.814;37.460;2022-07-05T15:54:40;20.40;;;14.45;;
27213;SDS011;14723;55.814;37.460;2022-07-05T15:57:46;18.83;;;13.40;;
27213;SDS011;14723;55.814;37.460;2022-07-05T16:00:51;16.92;;;12.68;;
27213;SDS011;14723;55.814;37.460;2022-07-05T16:03:57;17.48;;;12.60;;
27213;SDS011;14723;55.814;37.460;2022-07-05T16:07:05;21.90;;;13.70;;
27213;SDS011;14723;55.814;37.460;2022-07-05T16:10:10;19.58;;;12.93;;
27213;SDS011;14723;55.814;37.460;2022-07-05T16:13:35;19.17;;;12.80;;
27213;SDS011;14723;55.814;37.460;2022-07-05T16:16:40;21.58;;;13.18;;
27213;SDS011;14723;55.814;37.460;2022-07-05T16:19:46;23.70;;;12.18;;
27213;SDS011;14723;55.814;37.460;2022-07-05T16:22:53;19.35;;;11.60;;
27213;SDS011;14723;55.814;37.460;2022-07-05T16:26:00;18.85;;;11.88;;
27213;SDS011;14723;55.814;37.460;2022-07-05T16:29:05;23.02;;;12.98;;
27213;SDS011;14723;55.814;37.460;2022-07-05T16:32:10;21.30;;;12.27;;
27213;SDS011;14723;55.814;37.460;2022-07-05T16:35:16;18.88;;;12.15;;
27213;SDS011;14723;55.814;37.460;2022-07-05T16:38:24;15.70;;;11.82;;
27213;SDS011;14723;55.814;37.460;2022-07-05T16:41:32;16.92;;;11.00;;
27213;SDS011;14723;55.814;37.460;2022-07-05T16:44:37;14.15;;;10.98;;
27213;SDS011;14723;55.814;37.460;2022-07-05T16:47:43;18.80;;;10.63;;
27213;SDS011;14723;55.814;37.460;2022-07-05T16:50:48;20.13;;;12.02;;
27213;SDS011;14723;55.814;37.460;2022-07-05T16:53:59;15.00;;;11.15;;
27213;SDS011;14723;55.814;37.460;2022-07-05T16:57:05;15.95;;;12.02;;
27213;SDS011;14723;55.814;37.460;2022-07-05T17:00:11;20.08;;;12.13;;
27213;SDS011;14723;55.814;37.460;2022-07-05T17:03:16;16.15;;;11.82;;
27213;SDS011;14723;55.814;37.460;2022-07-05T17:06:22;17.05;;;13.50;;
27213;SDS011;14723;55.814;37.460;2022-07-05T17:09:30;15.15;;;11.60;;
27213;SDS011;14723;55.814;37.460;2022-07-05T17:12:36;15.27;;;11.65;;
27213;SDS011;14723;55.814;37.460;2022-07-05T17:15:41;25.33;;;15.80;;
27213;SDS011;14723;55.814;37.460;2022-07-05T17:18:47;18.20;;;12.77;;
27213;SDS011;14723;55.814;37.460;2022-07-05T17:21:53;19.13;;;12.60;;
27213;SDS011;14723;55.814;37.460;2022-07-05T17:25:00;19.05;;;12.98;;
27213;SDS011;14723;55.814;37.460;2022-07-05T17:28:06;19.88;;;14.77;;
27213;SDS011;14723;55.814;37.460;2022-07-05T17:31:14;19.52;;;13.10;;
27213;SDS011;14723;55.814;37.460;2022-07-05T17:34:20;18.50;;;12.95;;
27213;SDS011;14723;55.814;37.460;2022-07-05T17:37:25;17.27;;;12.95;;
27213;SDS011;14723;55.814;37.460;2022-07-05T17:40:33;18.92;;;13.32;;
27213;SDS011;14723;55.814;37.460;2022-07-05T17:43:38;17.65;;;13.68;;
27213;SDS011;14723;55.814;37.460;2022-07-05T17:46:48;17.67;;;13.23;;
27213;SDS011;14723;55.814;37.460;2022-07-05T17:49:53;17.77;;;13.63;;
27213;SDS011;14723;55.814;37.460;2022-07-05T17:53:18;17.40;;;13.57;;
27213;SDS011;14723;55.814;37.460;2022-07-05T17:56:27;22.83;;;14.10;;
27213;SDS011;14723;55.814;37.460;2022-07-05T17:59:32;21.55;;;13.80;;
27213;SDS011;14723;55.814;37.460;2022-07-05T18:02:38;22.05;;;15.02;;
27213;SDS011;14723;55.814;37.460;2022-07-05T18:05:50;19.58;;;14.23;;
27213;SDS011;14723;55.814;37.460;2022-07-05T18:08:55;23.90;;;15.55;;
27213;SDS011;14723;55.814;37.460;2022-07-05T18:12:05;20.75;;;15.07;;
27213;SDS011;14723;55.814;37.460;2022-07-05T18:15:11;19.65;;;14.25;;
27213;SDS011;14723;55.814;37.460;2022-07-05T18:18:16;18.98;;;14.05;;
27213;SDS011;14723;55.814;37.460;2022-07-05T18:21:21;19.92;;;14.25;;
27213;SDS011;14723;55.814;37.460;2022-07-05T18:24:26;20.85;;;14.32;;
27213;SDS011;14723;55.814;37.460;2022-07-05T18:27:38;19.58;;;14.43;;
27213;SDS011;14723;55.814;37.460;2022-07-05T18:30:43;18.92;;;15.18;;
27213;SDS011;14723;55.814;37.460;2022-07-05T18:33:48;22.92;;;14.75;;
27213;SDS011;14723;55.814;37.460;2022-07-05T18:36:53;23.08;;;15.15;;
27213;SDS011;14723;55.814;37.460;2022-07-05T18:39:59;19.55;;;14.57;;
27213;SDS011;14723;55.814;37.460;2022-07-05T18:43:07;20.08;;;14.35;;
27213;SDS011;14723;55.814;37.460;2022-07-05T18:46:12;19.83;;;14.75;;
27213;SDS011;14723;55.814;37.460;2022-07-05T18:49:17;21.63;;;15.50;;
27213;SDS011;14723;55.814;37.460;2022-07-05T18:52:22;23.00;;;16.30;;
27213;SDS011;14723;55.814;37.460;2022-07-05T18:55:28;32.55;;;17.00;;
27213;SDS011;14723;55.814;37.460;2022-07-05T18:58:36;26.23;;;15.27;;